sensor_id;sensor_type;location;lat;lon;timestamp;P1;durP1;ratioP1;P2;durP2;ratioP2
37091;SDS011;23005;51.998;4.502;2023-03-23T00:00:15;14.25;;;4.57;;
37091;SDS011;23005;51.998;4.502;2023-03-23T00:01:34;11.55;;;4.78;;
37091;SDS011;23005;51.998;4.502;2023-03-23T00:02:58;13.15;;;4.40;;
37091;SDS011;23005;51.998;4.502;2023-03-23T00:04:17;10.05;;;4.43;;
37091;SDS011;23005;51.998;4.502;2023-03-23T00:05:38;15.20;;;4.20;;
37091;SDS011;23005;51.998;4.502;2023-03-23T00:06:58;11.60;;;4.55;;
37091;SDS011;23005;51.998;4.502;2023-03-23T00:08:20;15.30;;;4.93;;
37091;SDS011;23005;51.998;4.502;2023-03-23T00:09:40;11.85;;;4.43;;
37091;SDS011;23005;51.998;4.502;2023-03-23T00:11:00;19.33;;;4.55;;
37091;SDS011;23005;51.998;4.502;2023-03-23T00:12:25;10.52;;;4.13;;
37091;SDS011;23005;51.998;4.502;2023-03-23T00:13:48;11.32;;;4.00;;
37091;SDS011;23005;51.998;4.502;2023-03-23T00:15:10;10.45;;;4.22;;
37091;SDS011;23005;51.998;4.502;2023-03-23T00:16:31;13.60;;;3.97;;
37091;SDS011;23005;51.998;4.502;2023-03-23T00:17:53;13.43;;;4.35;;
37091;SDS011;23005;51.998;4.502;2023-03-23T00:19:13;8.55;;;3.88;;
37091;SDS011;23005;51.998;4.502;2023-03-23T00:20:34;11.45;;;3.72;;
37091;SDS011;23005;51.998;4.502;2023-03-23T00:21:57;8.88;;;4.10;;
37091;SDS011;23005;51.998;4.502;2023-03-23T00:23:17;14.98;;;4.55;;
37091;SDS011;23005;51.998;4.502;2023-03-23T00:24:37;13.82;;;3.95;;
37091;SDS011;23005;51.998;4.502;2023-03-23T00:25:58;11.80;;;4.00;;
37091;SDS011;23005;51.998;4.502;2023-03-23T00:27:19;10.30;;;4.10;;
37091;SDS011;23005;51.998;4.502;2023-03-23T00:28:40;12.35;;;3.95;;
37091;SDS011;23005;51.998;4.502;2023-03-23T00:30:00;10.15;;;4.20;;
37091;SDS011;23005;51.998;4.502;2023-03-23T00:31:25;9.23;;;4.10;;
37091;SDS011;23005;51.998;4.502;2023-03-23T00:32:46;11.77;;;3.83;;
37091;SDS011;23005;51.998;4.502;2023-03-23T00:34:06;10.23;;;4.00;;
37091;SDS011;23005;51.998;4.502;2023-03-23T00:35:27;10.13;;;3.90;;
37091;SDS011;23005;51.998;4.502;2023-03-23T00:36:49;11.25;;;3.65;;
37091;SDS011;23005;51.998;4.502;2023-03-23T00:38:10;14.05;;;3.92;;
37091;SDS011;23005;51.998;4.502;2023-03-23T00:39:37;12.80;;;3.92;;
37091;SDS011;23005;51.998;4.502;2023-03-23T00:40:57;10.68;;;4.15;;
37091;SDS011;23005;51.998;4.502;2023-03-23T00:42:17;13.27;;;4.47;;
37091;SDS011;23005;51.998;4.502;2023-03-23T00:43:38;13.15;;;4.40;;
37091;SDS011;23005;51.998;4.502;2023-03-23T00:44:58;9.95;;;4.20;;
37091;SDS011;23005;51.998;4.502;2023-03-23T00:46:19;11.43;;;3.97;;
37091;SDS011;23005;51.998;4.502;2023-03-23T00:47:38;8.70;;;3.73;;
37091;SDS011;23005;51.998;4.502;2023-03-23T00:48:59;11.85;;;3.92;;
37091;SDS011;23005;51.998;4.502;2023-03-23T00:50:19;13.27;;;4.30;;
37091;SDS011;23005;51.998;4.502;2023-03-23T00:51:42;15.68;;;4.85;;
37091;SDS011;23005;51.998;4.502;2023-03-23T00:53:03;9.50;;;3.65;;
37091;SDS011;23005;51.998;4.502;2023-03-23T00:54:23;13.57;;;3.95;;
37091;SDS011;23005;51.998;4.502;2023-03-23T00:55:44;13.55;;;4.13;;
37091;SDS011;23005;51.998;4.502;2023-03-23T00:57:04;8.82;;;3.70;;
37091;SDS011;23005;51.998;4.502;2023-03-23T00:58:24;10.52;;;3.80;;
37091;SDS011;23005;51.998;4.502;2023-03-23T00:59:44;8.30;;;3.63;;
37091;SDS011;23005;51.998;4.502;2023-03-23T01:01:06;12.95;;;4.38;;
37091;SDS011;23005;51.998;4.502;2023-03-23T01:02:26;13.82;;;3.80;;
37091;SDS011;23005;51.998;4.502;2023-03-23T01:03:46;8.68;;;3.80;;
37091;SDS011;23005;51.998;4.502;2023-03-23T01:05:07;12.90;;;3.83;;
37091;SDS011;23005;51.998;4.502;2023-03-23T01:06:34;10.88;;;3.60;;
37091;SDS011;23005;51.998;4.502;2023-03-23T01:07:50;9.90;;;3.53;;
37091;SDS011;23005;51.998;4.502;2023-03-23T01:09:10;13.82;;;3.70;;
37091;SDS011;23005;51.998;4.502;2023-03-23T01:10:32;10.45;;;4.60;;
37091;SDS011;23005;51.998;4.502;2023-03-23T01:11:52;12.15;;;3.95;;
37091;SDS011;23005;51.998;4.502;2023-03-23T01:13:12;15.25;;;3.72;;
37091;SDS011;23005;51.998;4.502;2023-03-23T01:14:32;10.98;;;3.85;;
37091;SDS011;23005;51.998;4.502;2023-03-23T01:15:52;10.88;;;3.78;;
37091;SDS011;23005;51.998;4.502;2023-03-23T01:17:12;9.02;;;3.50;;
37091;SDS011;23005;51.998;4.502;2023-03-23T01:18:31;8.98;;;3.72;;
37091;SDS011;23005;51.998;4.502;2023-03-23T01:19:50;10.10;;;3.50;;
37091;SDS011;23005;51.998;4.502;2023-03-23T01:21:13;10.27;;;3.80;;
37091;SDS011;23005;51.998;4.502;2023-03-23T01:22:34;8.98;;;3.70;;
37091;SDS011;23005;51.998;4.502;2023-03-23T01:23:53;10.98;;;3.58;;
37091;SDS011;23005;51.998;4.502;2023-03-23T01:25:13;10.40;;;3.80;;
37091;SDS011;23005;51.998;4.502;2023-03-23T01:26:33;8.77;;;3.65;;
37091;SDS011;23005;51.998;4.502;2023-03-23T01:27:52;10.32;;;3.63;;
37091;SDS011;23005;51.998;4.502;2023-03-23T01:29:15;9.75;;;3.17;;
37091;SDS011;23005;51.998;4.502;2023-03-23T01:30:34;8.98;;;3.35;;
37091;SDS011;23005;51.998;4.502;2023-03-23T01:31:55;7.95;;;3.17;;
37091;SDS011;23005;51.998;4.502;2023-03-23T01:33:15;10.15;;;3.53;;
37091;SDS011;23005;51.998;4.502;2023-03-23T01:34:35;9.35;;;3.65;;
37091;SDS011;23005;51.998;4.502;2023-03-23T01:35:55;14.07;;;4.43;;
37091;SDS011;23005;51.998;4.502;2023-03-23T01:37:16;8.05;;;3.67;;
37091;SDS011;23005;51.998;4.502;2023-03-23T01:38:36;9.05;;;3.53;;
37091;SDS011;23005;51.998;4.502;2023-03-23T01:39:56;7.63;;;3.40;;
37091;SDS011;23005;51.998;4.502;2023-03-23T01:41:17;10.27;;;3.70;;
37091;SDS011;23005;51.998;4.502;2023-03-23T01:42:37;9.85;;;3.30;;
37091;SDS011;23005;51.998;4.502;2023-03-23T01:43:58;7.80;;;3.20;;
37091;SDS011;23005;51.998;4.502;2023-03-23T01:45:23;12.38;;;3.38;;
37091;SDS011;23005;51.998;4.502;2023-03-23T01:46:44;6.55;;;3.05;;
37091;SDS011;23005;51.998;4.502;2023-03-23T01:48:06;8.00;;;3.10;;
37091;SDS011;23005;51.998;4.502;2023-03-23T01:49:30;10.18;;;3.33;;
37091;SDS011;23005;51.998;4.502;2023-03-23T01:50:54;8.77;;;3.47;;
37091;SDS011;23005;51.998;4.502;2023-03-23T01:52:18;10.88;;;3.20;;
37091;SDS011;23005;51.998;4.502;2023-03-23T01:53:40;7.38;;;2.95;;
37091;SDS011;23005;51.998;4.502;2023-03-23T01:55:02;9.60;;;3.17;;
37091;SDS011;23005;51.998;4.502;2023-03-23T01:56:24;7.13;;;3.20;;
37091;SDS011;23005;51.998;4.502;2023-03-23T01:57:45;10.82;;;3.42;;
37091;SDS011;23005;51.998;4.502;2023-03-23T01:59:04;6.35;;;3.10;;
37091;SDS011;23005;51.998;4.502;2023-03-23T02:00:24;8.50;;;3.05;;
37091;SDS011;23005;51.998;4.502;2023-03-23T02:01:43;13.65;;;3.15;;
37091;SDS011;23005;51.998;4.502;2023-03-23T02:03:03;9.02;;;3.00;;
37091;SDS011;23005;51.998;4.502;2023-03-23T02:04:23;10.38;;;3.50;;
37091;SDS011;23005;51.998;4.502;2023-03-23T02:05:43;7.40;;;3.17;;
37091;SDS011;23005;51.998;4.502;2023-03-23T02:07:03;7.85;;;3.30;;
37091;SDS011;23005;51.998;4.502;2023-03-23T02:08:24;5.13;;;2.95;;
37091;SDS011;23005;51.998;4.502;2023-03-23T02:09:45;7.60;;;2.95;;
37091;SDS011;23005;51.998;4.502;2023-03-23T02:11:08;7.03;;;2.63;;
37091;SDS011;23005;51.998;4.502;2023-03-23T02:12:31;8.15;;;3.20;;
37091;SDS011;23005;51.998;4.502;2023-03-23T02:13:51;9.13;;;3.28;;
37091;SDS011;23005;51.998;4.502;2023-03-23T02:15:11;9.98;;;3.20;;
37091;SDS011;23005;51.998;4.502;2023-03-23T02:16:33;11.50;;;3.63;;
37091;SDS011;23005;51.998;4.502;2023-03-23T02:17:57;8.80;;;3.50;;
37091;SDS011;23005;51.998;4.502;2023-03-23T02:19:37;8.57;;;3.92;;
37091;SDS011;23005;51.998;4.502;2023-03-23T02:21:27;9.10;;;3.35;;
37091;SDS011;23005;51.998;4.502;2023-03-23T02:23:18;13.20;;;3.60;;
37091;SDS011;23005;51.998;4.502;2023-03-23T02:25:08;10.27;;;3.75;;
37091;SDS011;23005;51.998;4.502;2023-03-23T02:26:53;12.00;;;3.40;;
37091;SDS011;23005;51.998;4.502;2023-03-23T02:28:22;10.43;;;3.28;;
37091;SDS011;23005;51.998;4.502;2023-03-23T02:30:14;7.18;;;3.03;;
37091;SDS011;23005;51.998;4.502;2023-03-23T02:31:51;10.68;;;3.15;;
37091;SDS011;23005;51.998;4.502;2023-03-23T02:35:00;10.25;;;3.42;;
37091;SDS011;23005;51.998;4.502;2023-03-23T02:36:23;10.98;;;3.05;;
37091;SDS011;23005;51.998;4.502;2023-03-23T02:37:48;12.00;;;3.28;;
37091;SDS011;23005;51.998;4.502;2023-03-23T02:39:10;8.65;;;2.72;;
37091;SDS011;23005;51.998;4.502;2023-03-23T02:40:32;14.57;;;3.38;;
37091;SDS011;23005;51.998;4.502;2023-03-23T02:41:56;8.65;;;3.20;;
37091;SDS011;23005;51.998;4.502;2023-03-23T02:43:21;7.32;;;2.80;;
37091;SDS011;23005;51.998;4.502;2023-03-23T02:44:43;13.70;;;3.38;;
37091;SDS011;23005;51.998;4.502;2023-03-23T02:46:04;15.50;;;2.78;;
37091;SDS011;23005;51.998;4.502;2023-03-23T02:47:25;6.47;;;2.65;;
37091;SDS011;23005;51.998;4.502;2023-03-23T02:48:48;10.57;;;2.88;;
37091;SDS011;23005;51.998;4.502;2023-03-23T02:50:10;8.88;;;3.10;;
37091;SDS011;23005;51.998;4.502;2023-03-23T02:51:32;11.27;;;3.33;;
37091;SDS011;23005;51.998;4.502;2023-03-23T02:52:52;11.98;;;2.70;;
37091;SDS011;23005;51.998;4.502;2023-03-23T02:54:13;8.60;;;2.75;;
37091;SDS011;23005;51.998;4.502;2023-03-23T02:56:53;7.05;;;2.53;;
37091;SDS011;23005;51.998;4.502;2023-03-23T02:58:13;10.10;;;2.90;;
37091;SDS011;23005;51.998;4.502;2023-03-23T02:59:33;14.95;;;2.92;;
37091;SDS011;23005;51.998;4.502;2023-03-23T03:00:53;7.88;;;2.92;;
37091;SDS011;23005;51.998;4.502;2023-03-23T03:02:14;15.05;;;2.67;;
37091;SDS011;23005;51.998;4.502;2023-03-23T03:03:36;9.93;;;2.72;;
37091;SDS011;23005;51.998;4.502;2023-03-23T03:04:58;8.80;;;2.08;;
37091;SDS011;23005;51.998;4.502;2023-03-23T03:06:24;9.35;;;3.05;;
37091;SDS011;23005;51.998;4.502;2023-03-23T03:07:52;6.28;;;2.25;;
37091;SDS011;23005;51.998;4.502;2023-03-23T03:09:20;8.35;;;2.40;;
37091;SDS011;23005;51.998;4.502;2023-03-23T03:10:44;7.35;;;2.47;;
37091;SDS011;23005;51.998;4.502;2023-03-23T03:12:08;8.52;;;2.83;;
37091;SDS011;23005;51.998;4.502;2023-03-23T03:13:33;8.70;;;3.00;;
37091;SDS011;23005;51.998;4.502;2023-03-23T03:14:56;9.85;;;2.88;;
37091;SDS011;23005;51.998;4.502;2023-03-23T03:16:21;7.85;;;2.90;;
37091;SDS011;23005;51.998;4.502;2023-03-23T03:17:48;9.45;;;3.08;;
37091;SDS011;23005;51.998;4.502;2023-03-23T03:19:12;11.02;;;3.35;;
37091;SDS011;23005;51.998;4.502;2023-03-23T03:20:37;9.77;;;3.60;;
37091;SDS011;23005;51.998;4.502;2023-03-23T03:21:59;12.43;;;3.88;;
37091;SDS011;23005;51.998;4.502;2023-03-23T03:23:19;7.93;;;3.80;;
37091;SDS011;23005;51.998;4.502;2023-03-23T03:24:40;12.45;;;3.53;;
37091;SDS011;23005;51.998;4.502;2023-03-23T03:26:00;11.55;;;4.05;;
37091;SDS011;23005;51.998;4.502;2023-03-23T03:27:21;18.55;;;4.13;;
37091;SDS011;23005;51.998;4.502;2023-03-23T03:28:43;10.40;;;4.30;;
37091;SDS011;23005;51.998;4.502;2023-03-23T03:30:03;10.77;;;3.55;;
37091;SDS011;23005;51.998;4.502;2023-03-23T03:31:28;11.88;;;3.88;;
37091;SDS011;23005;51.998;4.502;2023-03-23T03:32:49;11.95;;;4.18;;
37091;SDS011;23005;51.998;4.502;2023-03-23T03:34:10;12.85;;;3.33;;
37091;SDS011;23005;51.998;4.502;2023-03-23T03:35:30;11.93;;;3.63;;
37091;SDS011;23005;51.998;4.502;2023-03-23T03:36:52;15.90;;;4.28;;
37091;SDS011;23005;51.998;4.502;2023-03-23T03:38:13;15.95;;;4.50;;
37091;SDS011;23005;51.998;4.502;2023-03-23T03:39:34;14.10;;;4.35;;
37091;SDS011;23005;51.998;4.502;2023-03-23T03:40:55;15.43;;;5.13;;
37091;SDS011;23005;51.998;4.502;2023-03-23T03:42:14;18.52;;;4.38;;
37091;SDS011;23005;51.998;4.502;2023-03-23T03:43:34;15.40;;;4.40;;
37091;SDS011;23005;51.998;4.502;2023-03-23T03:44:56;13.90;;;4.70;;
37091;SDS011;23005;51.998;4.502;2023-03-23T03:46:16;14.32;;;4.40;;
37091;SDS011;23005;51.998;4.502;2023-03-23T03:47:36;21.38;;;5.07;;
37091;SDS011;23005;51.998;4.502;2023-03-23T03:48:55;11.57;;;4.00;;
37091;SDS011;23005;51.998;4.502;2023-03-23T03:50:15;10.02;;;4.22;;
37091;SDS011;23005;51.998;4.502;2023-03-23T03:51:35;13.32;;;4.75;;
37091;SDS011;23005;51.998;4.502;2023-03-23T03:52:56;15.07;;;3.88;;
37091;SDS011;23005;51.998;4.502;2023-03-23T03:54:15;16.73;;;4.55;;
37091;SDS011;23005;51.998;4.502;2023-03-23T03:55:35;23.40;;;4.55;;
37091;SDS011;23005;51.998;4.502;2023-03-23T03:56:54;19.08;;;4.60;;
37091;SDS011;23005;51.998;4.502;2023-03-23T03:58:13;13.75;;;3.97;;
37091;SDS011;23005;51.998;4.502;2023-03-23T03:59:33;11.10;;;3.75;;
37091;SDS011;23005;51.998;4.502;2023-03-23T04:00:52;15.43;;;3.88;;
37091;SDS011;23005;51.998;4.502;2023-03-23T04:02:12;14.90;;;4.10;;
37091;SDS011;23005;51.998;4.502;2023-03-23T04:03:31;15.82;;;4.00;;
37091;SDS011;23005;51.998;4.502;2023-03-23T04:04:51;13.32;;;3.17;;
37091;SDS011;23005;51.998;4.502;2023-03-23T04:06:10;16.33;;;4.22;;
37091;SDS011;23005;51.998;4.502;2023-03-23T04:07:30;15.45;;;3.42;;
37091;SDS011;23005;51.998;4.502;2023-03-23T04:08:51;11.88;;;3.08;;
37091;SDS011;23005;51.998;4.502;2023-03-23T04:10:11;17.65;;;4.32;;
37091;SDS011;23005;51.998;4.502;2023-03-23T04:11:30;12.05;;;2.97;;
37091;SDS011;23005;51.998;4.502;2023-03-23T04:12:50;11.38;;;3.28;;
37091;SDS011;23005;51.998;4.502;2023-03-23T04:14:09;16.98;;;3.33;;
37091;SDS011;23005;51.998;4.502;2023-03-23T04:15:28;15.38;;;3.42;;
37091;SDS011;23005;51.998;4.502;2023-03-23T04:16:48;15.13;;;3.53;;
37091;SDS011;23005;51.998;4.502;2023-03-23T04:18:07;19.60;;;3.92;;
37091;SDS011;23005;51.998;4.502;2023-03-23T04:19:26;15.63;;;3.80;;
37091;SDS011;23005;51.998;4.502;2023-03-23T04:20:46;17.48;;;3.40;;
37091;SDS011;23005;51.998;4.502;2023-03-23T04:22:06;14.88;;;3.17;;
37091;SDS011;23005;51.998;4.502;2023-03-23T04:23:26;18.88;;;4.25;;
37091;SDS011;23005;51.998;4.502;2023-03-23T04:24:48;16.15;;;3.90;;
37091;SDS011;23005;51.998;4.502;2023-03-23T04:26:08;16.42;;;3.13;;
37091;SDS011;23005;51.998;4.502;2023-03-23T04:27:28;12.13;;;2.83;;
37091;SDS011;23005;51.998;4.502;2023-03-23T04:28:47;17.35;;;3.33;;
37091;SDS011;23005;51.998;4.502;2023-03-23T04:30:07;17.40;;;3.63;;
37091;SDS011;23005;51.998;4.502;2023-03-23T04:31:27;17.60;;;3.30;;
37091;SDS011;23005;51.998;4.502;2023-03-23T04:32:46;19.27;;;3.25;;
37091;SDS011;23005;51.998;4.502;2023-03-23T04:34:06;18.25;;;4.50;;
37091;SDS011;23005;51.998;4.502;2023-03-23T04:35:26;15.02;;;4.07;;
37091;SDS011;23005;51.998;4.502;2023-03-23T04:36:45;17.95;;;3.58;;
37091;SDS011;23005;51.998;4.502;2023-03-23T04:38:05;19.27;;;3.45;;
37091;SDS011;23005;51.998;4.502;2023-03-23T04:39:25;15.82;;;3.78;;
37091;SDS011;23005;51.998;4.502;2023-03-23T04:40:46;18.63;;;3.40;;
37091;SDS011;23005;51.998;4.502;2023-03-23T04:42:06;12.57;;;3.10;;
37091;SDS011;23005;51.998;4.502;2023-03-23T04:43:25;15.65;;;3.45;;
37091;SDS011;23005;51.998;4.502;2023-03-23T04:44:45;19.23;;;3.55;;
37091;SDS011;23005;51.998;4.502;2023-03-23T04:46:04;25.75;;;4.38;;
37091;SDS011;23005;51.998;4.502;2023-03-23T04:47:25;16.70;;;3.47;;
37091;SDS011;23005;51.998;4.502;2023-03-23T04:48:45;17.13;;;4.13;;
37091;SDS011;23005;51.998;4.502;2023-03-23T04:50:05;15.57;;;3.88;;
37091;SDS011;23005;51.998;4.502;2023-03-23T04:51:26;19.70;;;4.20;;
37091;SDS011;23005;51.998;4.502;2023-03-23T04:52:47;22.65;;;4.05;;
37091;SDS011;23005;51.998;4.502;2023-03-23T04:54:06;18.33;;;3.70;;
37091;SDS011;23005;51.998;4.502;2023-03-23T04:55:25;22.92;;;4.38;;
37091;SDS011;23005;51.998;4.502;2023-03-23T04:56:46;23.92;;;4.30;;
37091;SDS011;23005;51.998;4.502;2023-03-23T04:58:06;19.00;;;3.97;;
37091;SDS011;23005;51.998;4.502;2023-03-23T04:59:26;18.98;;;4.20;;
37091;SDS011;23005;51.998;4.502;2023-03-23T05:00:46;24.73;;;4.30;;
37091;SDS011;23005;51.998;4.502;2023-03-23T05:02:05;21.40;;;4.20;;
37091;SDS011;23005;51.998;4.502;2023-03-23T05:03:24;25.48;;;4.75;;
37091;SDS011;23005;51.998;4.502;2023-03-23T05:04:44;25.10;;;5.25;;
37091;SDS011;23005;51.998;4.502;2023-03-23T05:06:04;18.83;;;4.28;;
37091;SDS011;23005;51.998;4.502;2023-03-23T05:07:25;18.88;;;4.30;;
37091;SDS011;23005;51.998;4.502;2023-03-23T05:08:44;21.35;;;4.60;;
37091;SDS011;23005;51.998;4.502;2023-03-23T05:10:04;17.58;;;3.80;;
37091;SDS011;23005;51.998;4.502;2023-03-23T05:11:24;20.38;;;4.05;;
37091;SDS011;23005;51.998;4.502;2023-03-23T05:12:45;22.75;;;4.75;;
37091;SDS011;23005;51.998;4.502;2023-03-23T05:14:05;29.33;;;5.00;;
37091;SDS011;23005;51.998;4.502;2023-03-23T05:15:24;30.23;;;4.95;;
37091;SDS011;23005;51.998;4.502;2023-03-23T05:16:44;19.67;;;4.72;;
37091;SDS011;23005;51.998;4.502;2023-03-23T05:18:03;29.35;;;5.43;;
37091;SDS011;23005;51.998;4.502;2023-03-23T05:19:23;22.20;;;4.30;;
37091;SDS011;23005;51.998;4.502;2023-03-23T05:20:43;28.23;;;4.95;;
37091;SDS011;23005;51.998;4.502;2023-03-23T05:22:02;24.85;;;4.07;;
37091;SDS011;23005;51.998;4.502;2023-03-23T05:23:23;21.33;;;4.68;;
37091;SDS011;23005;51.998;4.502;2023-03-23T05:24:43;27.95;;;4.97;;
37091;SDS011;23005;51.998;4.502;2023-03-23T05:26:02;24.00;;;5.30;;
37091;SDS011;23005;51.998;4.502;2023-03-23T05:27:22;23.30;;;5.35;;
37091;SDS011;23005;51.998;4.502;2023-03-23T05:28:43;25.75;;;5.20;;
37091;SDS011;23005;51.998;4.502;2023-03-23T05:30:03;33.35;;;5.88;;
37091;SDS011;23005;51.998;4.502;2023-03-23T05:31:24;29.52;;;5.18;;
37091;SDS011;23005;51.998;4.502;2023-03-23T05:32:44;27.25;;;5.40;;
37091;SDS011;23005;51.998;4.502;2023-03-23T05:34:04;23.65;;;4.65;;
37091;SDS011;23005;51.998;4.502;2023-03-23T05:35:23;24.65;;;4.93;;
37091;SDS011;23005;51.998;4.502;2023-03-23T05:36:43;25.80;;;5.07;;
37091;SDS011;23005;51.998;4.502;2023-03-23T05:38:02;25.58;;;4.47;;
37091;SDS011;23005;51.998;4.502;2023-03-23T05:39:21;20.92;;;4.28;;
37091;SDS011;23005;51.998;4.502;2023-03-23T05:40:41;23.63;;;4.32;;
37091;SDS011;23005;51.998;4.502;2023-03-23T05:42:01;26.77;;;4.13;;
37091;SDS011;23005;51.998;4.502;2023-03-23T05:43:21;30.95;;;5.45;;
37091;SDS011;23005;51.998;4.502;2023-03-23T05:44:42;18.85;;;4.22;;
37091;SDS011;23005;51.998;4.502;2023-03-23T05:46:02;26.50;;;4.63;;
37091;SDS011;23005;51.998;4.502;2023-03-23T05:47:21;25.30;;;4.88;;
37091;SDS011;23005;51.998;4.502;2023-03-23T05:48:41;27.73;;;5.47;;
37091;SDS011;23005;51.998;4.502;2023-03-23T05:50:00;25.42;;;4.78;;
37091;SDS011;23005;51.998;4.502;2023-03-23T05:51:20;21.95;;;4.88;;
37091;SDS011;23005;51.998;4.502;2023-03-23T05:52:40;22.58;;;4.78;;
37091;SDS011;23005;51.998;4.502;2023-03-23T05:53:59;28.83;;;5.25;;
37091;SDS011;23005;51.998;4.502;2023-03-23T05:55:19;28.77;;;5.00;;
37091;SDS011;23005;51.998;4.502;2023-03-23T05:56:38;20.40;;;5.15;;
37091;SDS011;23005;51.998;4.502;2023-03-23T05:57:58;21.70;;;5.00;;
37091;SDS011;23005;51.998;4.502;2023-03-23T05:59:18;38.45;;;6.10;;
37091;SDS011;23005;51.998;4.502;2023-03-23T06:00:39;22.52;;;5.43;;
37091;SDS011;23005;51.998;4.502;2023-03-23T06:01:59;23.05;;;5.07;;
37091;SDS011;23005;51.998;4.502;2023-03-23T06:03:19;22.80;;;4.85;;
37091;SDS011;23005;51.998;4.502;2023-03-23T06:04:39;20.73;;;4.90;;
37091;SDS011;23005;51.998;4.502;2023-03-23T06:05:58;24.55;;;5.78;;
37091;SDS011;23005;51.998;4.502;2023-03-23T06:07:17;23.67;;;4.88;;
37091;SDS011;23005;51.998;4.502;2023-03-23T06:08:37;27.38;;;5.00;;
37091;SDS011;23005;51.998;4.502;2023-03-23T06:09:56;20.48;;;4.70;;
37091;SDS011;23005;51.998;4.502;2023-03-23T06:11:16;21.38;;;5.75;;
37091;SDS011;23005;51.998;4.502;2023-03-23T06:12:37;27.00;;;5.68;;
37091;SDS011;23005;51.998;4.502;2023-03-23T06:13:56;32.38;;;5.78;;
37091;SDS011;23005;51.998;4.502;2023-03-23T06:15:16;26.50;;;5.32;;
37091;SDS011;23005;51.998;4.502;2023-03-23T06:16:38;24.05;;;5.57;;
37091;SDS011;23005;51.998;4.502;2023-03-23T06:17:58;27.92;;;5.43;;
37091;SDS011;23005;51.998;4.502;2023-03-23T06:19:17;29.88;;;5.30;;
37091;SDS011;23005;51.998;4.502;2023-03-23T06:20:37;25.92;;;5.38;;
37091;SDS011;23005;51.998;4.502;2023-03-23T06:21:57;28.17;;;5.43;;
37091;SDS011;23005;51.998;4.502;2023-03-23T06:23:27;31.10;;;6.40;;
37091;SDS011;23005;51.998;4.502;2023-03-23T06:24:47;36.53;;;6.30;;
37091;SDS011;23005;51.998;4.502;2023-03-23T06:26:11;26.60;;;6.20;;
37091;SDS011;23005;51.998;4.502;2023-03-23T06:27:31;26.38;;;6.07;;
37091;SDS011;23005;51.998;4.502;2023-03-23T06:28:51;27.08;;;5.50;;
37091;SDS011;23005;51.998;4.502;2023-03-23T06:30:12;22.27;;;6.07;;
37091;SDS011;23005;51.998;4.502;2023-03-23T06:31:31;29.23;;;6.10;;
37091;SDS011;23005;51.998;4.502;2023-03-23T06:32:54;29.23;;;5.50;;
37091;SDS011;23005;51.998;4.502;2023-03-23T06:34:14;27.08;;;5.25;;
37091;SDS011;23005;51.998;4.502;2023-03-23T06:35:33;32.50;;;5.82;;
37091;SDS011;23005;51.998;4.502;2023-03-23T06:36:52;24.55;;;5.45;;
37091;SDS011;23005;51.998;4.502;2023-03-23T06:38:12;32.92;;;6.97;;
37091;SDS011;23005;51.998;4.502;2023-03-23T06:39:32;30.70;;;6.72;;
37091;SDS011;23005;51.998;4.502;2023-03-23T06:40:51;28.85;;;5.97;;
37091;SDS011;23005;51.998;4.502;2023-03-23T06:42:11;26.35;;;5.57;;
37091;SDS011;23005;51.998;4.502;2023-03-23T06:43:31;28.40;;;5.38;;
37091;SDS011;23005;51.998;4.502;2023-03-23T06:44:51;25.27;;;5.05;;
37091;SDS011;23005;51.998;4.502;2023-03-23T06:46:10;25.08;;;5.60;;
37091;SDS011;23005;51.998;4.502;2023-03-23T06:47:30;25.75;;;5.47;;
37091;SDS011;23005;51.998;4.502;2023-03-23T06:48:52;25.55;;;5.93;;
37091;SDS011;23005;51.998;4.502;2023-03-23T06:51:31;27.75;;;5.28;;
37091;SDS011;23005;51.998;4.502;2023-03-23T06:52:50;32.25;;;6.03;;
37091;SDS011;23005;51.998;4.502;2023-03-23T06:54:10;33.53;;;7.05;;
37091;SDS011;23005;51.998;4.502;2023-03-23T06:55:29;30.73;;;4.65;;
37091;SDS011;23005;51.998;4.502;2023-03-23T06:56:49;28.38;;;5.50;;
37091;SDS011;23005;51.998;4.502;2023-03-23T06:58:09;37.85;;;6.30;;
37091;SDS011;23005;51.998;4.502;2023-03-23T06:59:29;26.95;;;4.78;;
37091;SDS011;23005;51.998;4.502;2023-03-23T07:00:48;19.98;;;4.75;;
37091;SDS011;23005;51.998;4.502;2023-03-23T07:02:12;24.38;;;5.22;;
37091;SDS011;23005;51.998;4.502;2023-03-23T07:03:32;30.58;;;5.20;;
37091;SDS011;23005;51.998;4.502;2023-03-23T07:04:54;30.73;;;4.70;;
37091;SDS011;23005;51.998;4.502;2023-03-23T07:06:13;24.55;;;4.80;;
37091;SDS011;23005;51.998;4.502;2023-03-23T07:07:33;27.80;;;4.18;;
37091;SDS011;23005;51.998;4.502;2023-03-23T07:08:53;24.20;;;4.40;;
37091;SDS011;23005;51.998;4.502;2023-03-23T07:10:13;20.85;;;4.53;;
37091;SDS011;23005;51.998;4.502;2023-03-23T07:11:32;19.85;;;4.03;;
37091;SDS011;23005;51.998;4.502;2023-03-23T07:12:52;27.02;;;4.13;;
37091;SDS011;23005;51.998;4.502;2023-03-23T07:14:11;24.27;;;3.88;;
37091;SDS011;23005;51.998;4.502;2023-03-23T07:15:31;25.83;;;4.72;;
37091;SDS011;23005;51.998;4.502;2023-03-23T07:16:51;16.15;;;3.50;;
37091;SDS011;23005;51.998;4.502;2023-03-23T07:18:11;25.50;;;4.88;;
37091;SDS011;23005;51.998;4.502;2023-03-23T07:19:31;22.38;;;4.15;;
37091;SDS011;23005;51.998;4.502;2023-03-23T07:20:52;27.02;;;4.40;;
37091;SDS011;23005;51.998;4.502;2023-03-23T07:22:12;26.35;;;4.38;;
37091;SDS011;23005;51.998;4.502;2023-03-23T07:23:31;26.50;;;4.47;;
37091;SDS011;23005;51.998;4.502;2023-03-23T07:24:51;22.42;;;4.63;;
37091;SDS011;23005;51.998;4.502;2023-03-23T07:26:10;21.95;;;4.25;;
37091;SDS011;23005;51.998;4.502;2023-03-23T07:27:30;30.77;;;4.80;;
37091;SDS011;23005;51.998;4.502;2023-03-23T07:28:50;21.52;;;4.38;;
37091;SDS011;23005;51.998;4.502;2023-03-23T07:30:10;24.90;;;4.35;;
37091;SDS011;23005;51.998;4.502;2023-03-23T07:31:30;24.95;;;4.60;;
37091;SDS011;23005;51.998;4.502;2023-03-23T07:32:50;27.30;;;4.53;;
37091;SDS011;23005;51.998;4.502;2023-03-23T07:34:10;18.55;;;3.97;;
37091;SDS011;23005;51.998;4.502;2023-03-23T07:35:29;25.05;;;3.97;;
37091;SDS011;23005;51.998;4.502;2023-03-23T07:36:50;27.77;;;4.32;;
37091;SDS011;23005;51.998;4.502;2023-03-23T07:38:10;22.77;;;3.60;;
37091;SDS011;23005;51.998;4.502;2023-03-23T07:39:30;26.30;;;5.43;;
37091;SDS011;23005;51.998;4.502;2023-03-23T07:40:49;22.17;;;3.92;;
37091;SDS011;23005;51.998;4.502;2023-03-23T07:42:09;26.88;;;4.15;;
37091;SDS011;23005;51.998;4.502;2023-03-23T07:43:29;17.38;;;3.72;;
37091;SDS011;23005;51.998;4.502;2023-03-23T07:44:49;26.20;;;4.70;;
37091;SDS011;23005;51.998;4.502;2023-03-23T07:46:09;20.98;;;3.97;;
37091;SDS011;23005;51.998;4.502;2023-03-23T07:47:28;29.10;;;4.88;;
37091;SDS011;23005;51.998;4.502;2023-03-23T07:48:48;30.35;;;4.32;;
37091;SDS011;23005;51.998;4.502;2023-03-23T07:50:08;20.25;;;4.53;;
37091;SDS011;23005;51.998;4.502;2023-03-23T07:51:28;22.77;;;5.20;;
37091;SDS011;23005;51.998;4.502;2023-03-23T07:52:49;29.58;;;5.05;;
37091;SDS011;23005;51.998;4.502;2023-03-23T07:54:10;24.92;;;4.65;;
37091;SDS011;23005;51.998;4.502;2023-03-23T07:55:30;31.63;;;5.00;;
37091;SDS011;23005;51.998;4.502;2023-03-23T07:56:51;24.30;;;4.38;;
37091;SDS011;23005;51.998;4.502;2023-03-23T07:58:10;27.63;;;4.50;;
37091;SDS011;23005;51.998;4.502;2023-03-23T07:59:30;22.55;;;3.88;;
37091;SDS011;23005;51.998;4.502;2023-03-23T08:00:51;26.55;;;4.03;;
37091;SDS011;23005;51.998;4.502;2023-03-23T08:02:11;23.00;;;4.10;;
37091;SDS011;23005;51.998;4.502;2023-03-23T08:03:31;30.20;;;4.72;;
37091;SDS011;23005;51.998;4.502;2023-03-23T08:04:51;23.30;;;4.13;;
37091;SDS011;23005;51.998;4.502;2023-03-23T08:06:10;21.27;;;4.20;;